createdAt,value
2022-10-20T00:01:20.935Z,3.17
2022-10-20T00:03:49.289Z,2.13
2022-10-20T00:06:20.604Z,4.00
2022-10-20T00:08:47.764Z,6.15
2022-10-20T00:11:17.246Z,2.03
2022-10-20T00:13:45.727Z,4.95
2022-10-20T00:16:13.619Z,2.30
2022-10-20T00:18:40.854Z,4.93
2022-10-20T00:21:09.554Z,4.07
2022-10-20T00:23:36.412Z,3.67
2022-10-20T00:26:07.010Z,6.55
2022-10-20T00:28:34.285Z,5.53
2022-10-20T00:31:01.743Z,2.08
2022-10-20T00:33:28.484Z,3.55
2022-10-20T00:35:54.963Z,3.17
2022-10-20T00:38:21.505Z,8.07
2022-10-20T00:40:48.048Z,7.83
2022-10-20T00:43:17.062Z,6.30
2022-10-20T00:45:50.016Z,5.47
2022-10-20T00:48:24.077Z,6.28
2022-10-20T00:50:59.482Z,3.92
2022-10-20T00:53:29.025Z,3.30
2022-10-20T00:55:58.718Z,7.72
2022-10-20T00:58:26.783Z,4.78
2022-10-20T01:00:56.543Z,3.88
2022-10-20T01:03:30.480Z,3.65
2022-10-20T01:05:57.024Z,3.40
2022-10-20T01:08:23.466Z,6.38
2022-10-20T01:11:12.769Z,4.28
2022-10-20T01:14:22.593Z,4.90
2022-10-20T01:17:05.417Z,7.15
2022-10-20T01:20:03.031Z,4.33
2022-10-20T01:23:06.914Z,3.70
2022-10-20T01:26:05.223Z,5.68
2022-10-20T01:28:43.316Z,5.63
2022-10-20T01:31:19.267Z,4.18
2022-10-20T01:33:56.810Z,3.20
2022-10-20T01:36:35.650Z,4.80
2022-10-20T01:39:08.694Z,4.20
2022-10-20T01:41:53.968Z,3.63
2022-10-20T01:44:24.676Z,3.75
2022-10-20T01:46:52.631Z,4.73
2022-10-20T01:49:19.587Z,4.47
2022-10-20T01:51:46.166Z,3.67
2022-10-20T01:54:29.281Z,3.72
2022-10-20T01:57:30.941Z,9.20
2022-10-20T02:00:12.944Z,5.37
2022-10-20T02:02:56.460Z,4.30
2022-10-20T02:05:46.049Z,4.47
2022-10-20T02:08:20.533Z,3.58
2022-10-20T02:10:50.332Z,9.38
2022-10-20T02:13:19.719Z,6.30
2022-10-20T02:15:51.425Z,7.28
2022-10-20T02:18:24.564Z,4.28
2022-10-20T02:20:53.935Z,3.60
2022-10-20T02:23:20.872Z,3.95
2022-10-20T02:25:51.437Z,5.13
2022-10-20T02:28:20.371Z,6.60
2022-10-20T02:30:48.099Z,6.45
2022-10-20T02:33:17.270Z,5.57
2022-10-20T02:35:51.485Z,5.10
2022-10-20T02:38:18.232Z,5.10
2022-10-20T02:40:45.190Z,6.63
2022-10-20T02:43:12.144Z,8.18
2022-10-20T02:45:39.147Z,4.45
2022-10-20T02:48:08.831Z,6.53
2022-10-20T02:50:37.262Z,4.97
2022-10-20T02:53:06.036Z,5.20
2022-10-20T02:55:32.678Z,6.60
2022-10-20T02:57:59.296Z,4.22
2022-10-20T03:00:29.519Z,4.32
2022-10-20T03:02:57.191Z,6.60
2022-10-20T03:05:23.739Z,4.53
2022-10-20T03:07:50.404Z,6.35
2022-10-20T03:10:16.909Z,5.38
2022-10-20T03:12:43.525Z,7.72
2022-10-20T03:15:10.534Z,6.43
2022-10-20T03:17:37.252Z,6.63
2022-10-20T03:20:04.933Z,4.75
2022-10-20T03:22:31.537Z,6.45
2022-10-20T03:24:58.157Z,6.35
2022-10-20T03:27:27.684Z,3.80
2022-10-20T03:29:54.371Z,6.13
2022-10-20T03:32:20.844Z,4.15
2022-10-20T03:34:47.362Z,3.83
2022-10-20T03:37:14.038Z,5.28
2022-10-20T03:39:40.851Z,6.87
2022-10-20T03:47:17.689Z,5.10
2022-10-20T03:49:44.403Z,4.25
2022-10-20T03:52:10.965Z,5.23
2022-10-20T03:54:40.833Z,9.75
2022-10-20T03:57:08.067Z,5.60
2022-10-20T03:59:34.768Z,4.43
2022-10-20T04:02:01.513Z,9.07
2022-10-20T04:04:28.225Z,6.07
2022-10-20T04:06:54.758Z,6.15
2022-10-20T04:09:21.465Z,4.13
2022-10-20T04:11:50.451Z,4.68
2022-10-20T04:14:17.216Z,8.20
2022-10-20T04:16:43.814Z,6.90
2022-10-20T04:19:10.395Z,9.63
2022-10-20T04:21:37.094Z,8.50
2022-10-20T04:24:05.435Z,7.50
2022-10-20T04:26:31.997Z,5.75
2022-10-20T04:28:58.720Z,8.47
2022-10-20T04:31:25.377Z,6.53
2022-10-20T04:33:53.282Z,5.63
2022-10-20T04:36:19.956Z,3.38
2022-10-20T04:38:46.477Z,6.50
2022-10-20T04:41:13.036Z,5.73
2022-10-20T04:43:40.470Z,8.88
2022-10-20T05:01:43.743Z,11.30
2022-10-20T05:04:11.142Z,4.50
2022-10-20T05:06:38.324Z,6.28
2022-10-20T05:09:07.965Z,7.13
2022-10-20T05:11:36.937Z,10.80
2022-10-20T05:14:03.491Z,12.68
2022-10-20T05:16:30.405Z,8.75
2022-10-20T05:19:01.192Z,5.75
2022-10-20T05:21:30.362Z,7.40
2022-10-20T05:23:59.023Z,4.70
2022-10-20T05:26:27.144Z,9.30
2022-10-20T05:28:54.014Z,9.48
2022-10-20T05:31:22.842Z,7.15
2022-10-20T05:33:52.039Z,5.97
2022-10-20T05:36:21.767Z,10.77
2022-10-20T05:38:51.809Z,5.75
2022-10-20T05:41:21.423Z,6.07
2022-10-20T05:43:57.453Z,5.75
2022-10-20T05:46:25.304Z,12.45
2022-10-20T05:48:56.876Z,8.23
2022-10-20T05:51:25.867Z,8.98
2022-10-20T05:53:54.647Z,11.57
2022-10-20T05:56:22.137Z,9.77
2022-10-20T05:58:49.180Z,4.82
2022-10-20T06:03:59.084Z,6.05
2022-10-20T06:06:28.390Z,8.90
2022-10-20T06:08:56.426Z,5.82
2022-10-20T06:11:23.871Z,7.35
2022-10-20T06:13:52.961Z,8.30
2022-10-20T06:16:24.339Z,7.13
2022-10-20T06:18:51.621Z,6.63
2022-10-20T06:21:31.372Z,8.35
2022-10-20T06:24:03.441Z,12.68
2022-10-20T06:26:33.223Z,8.03
2022-10-20T06:29:04.231Z,8.40
2022-10-20T06:31:35.712Z,7.63
2022-10-20T06:34:09.026Z,8.43
2022-10-20T06:36:37.709Z,7.32
2022-10-20T06:39:06.739Z,6.03
2022-10-20T06:41:35.728Z,10.63
2022-10-20T06:44:02.860Z,10.77
2022-10-20T06:46:32.323Z,8.98
2022-10-20T06:49:06.390Z,9.40
2022-10-20T06:51:35.740Z,5.60
2022-10-20T06:54:03.487Z,9.80
2022-10-20T06:56:32.908Z,7.95
2022-10-20T06:59:00.832Z,6.63
2022-10-20T07:01:33.291Z,9.13
2022-10-20T07:18:31.993Z,6.55
2022-10-20T07:21:05.005Z,7.67
2022-10-20T07:23:32.947Z,14.18
2022-10-20T07:26:08.744Z,6.38
2022-10-20T07:28:36.196Z,7.03
2022-10-20T07:31:11.186Z,8.05
2022-10-20T07:33:38.242Z,8.30
2022-10-20T07:36:20.306Z,8.27
2022-10-20T07:38:48.023Z,6.38
2022-10-20T07:41:15.749Z,6.40
2022-10-20T07:43:43.713Z,6.40
2022-10-20T07:46:11.832Z,8.20
2022-10-20T07:49:06.688Z,6.82
2022-10-20T07:51:38.365Z,12.02
2022-10-20T07:54:11.948Z,8.80
2022-10-20T07:56:41.015Z,10.68
2022-10-20T07:59:09.052Z,7.03
2022-10-20T08:01:36.004Z,7.88
2022-10-20T08:04:03.008Z,5.53
2022-10-20T08:06:31.348Z,10.50
2022-10-20T08:09:00.269Z,6.38
2022-10-20T08:11:27.593Z,10.60
2022-10-20T08:13:54.238Z,7.53
2022-10-20T08:16:37.523Z,7.13
2022-10-20T08:19:08.894Z,11.38
2022-10-20T08:21:35.689Z,3.85
2022-10-20T08:24:03.004Z,8.00
2022-10-20T08:26:29.848Z,5.88
2022-10-20T08:28:56.658Z,10.85
2022-10-20T08:31:24.137Z,10.77
2022-10-20T08:33:52.959Z,5.70
2022-10-20T08:36:20.970Z,6.60
2022-10-20T08:38:48.435Z,5.85
2022-10-20T08:41:21.263Z,9.52
2022-10-20T08:43:53.064Z,7.72
2022-10-20T08:46:23.090Z,10.13
2022-10-20T08:48:51.024Z,5.40
2022-10-20T08:51:28.421Z,8.02
2022-10-20T08:53:58.676Z,10.30
2022-10-20T08:56:27.749Z,5.30
2022-10-20T08:58:54.661Z,9.15
2022-10-20T09:01:27.390Z,9.87
2022-10-20T09:04:01.743Z,10.98
2022-10-20T09:06:28.617Z,8.52
2022-10-20T09:08:56.849Z,5.65
2022-10-20T09:11:27.757Z,7.00
2022-10-20T09:13:54.914Z,9.97
2022-10-20T09:16:42.235Z,10.70
2022-10-20T09:19:22.959Z,10.82
2022-10-20T09:21:55.892Z,13.48
2022-10-20T09:24:24.483Z,8.38
2022-10-20T09:26:59.282Z,6.40
2022-10-20T09:29:37.493Z,10.38
2022-10-20T09:32:45.062Z,6.30
2022-10-20T09:35:19.091Z,11.80
2022-10-20T09:38:02.981Z,6.82
2022-10-20T09:40:30.105Z,9.37
2022-10-20T09:43:02.508Z,5.82
2022-10-20T09:45:33.109Z,5.75
2022-10-20T09:48:17.301Z,5.95
2022-10-20T09:50:51.645Z,11.68
2022-10-20T09:53:21.670Z,10.40
2022-10-20T09:55:50.888Z,12.52
2022-10-20T09:58:32.913Z,6.50
2022-10-20T10:01:04.377Z,7.75
2022-10-20T10:03:46.001Z,10.18
2022-10-20T10:06:27.829Z,9.20
2022-10-20T10:08:57.779Z,7.93
2022-10-20T10:11:31.638Z,15.63
2022-10-20T10:14:01.857Z,8.20
2022-10-20T10:16:38.620Z,8.65
2022-10-20T10:19:06.135Z,5.43
2022-10-20T10:21:53.842Z,7.97
2022-10-20T10:24:47.406Z,8.98
2022-10-20T10:27:34.210Z,9.00
2022-10-20T10:30:28.940Z,10.73
2022-10-20T10:32:56.495Z,7.43
2022-10-20T10:35:33.550Z,9.50
2022-10-20T10:38:00.740Z,6.65
2022-10-20T10:40:38.030Z,10.18
2022-10-20T10:43:30.387Z,11.05
2022-10-20T10:45:58.132Z,7.83
2022-10-20T10:48:40.757Z,9.15
2022-10-20T10:51:16.134Z,6.68
2022-10-20T10:53:56.545Z,8.90
2022-10-20T10:56:47.509Z,14.38
2022-10-20T10:59:38.656Z,8.90
2022-10-20T11:02:40.262Z,8.02
2022-10-20T11:05:13.007Z,9.23
2022-10-20T11:07:47.527Z,11.77
2022-10-20T11:10:49.182Z,7.95
2022-10-20T11:13:28.132Z,7.80
2022-10-20T11:16:20.703Z,13.60
2022-10-20T11:18:59.172Z,8.40
2022-10-20T11:21:41.770Z,8.95
2022-10-20T11:24:18.324Z,8.13
2022-10-20T11:26:50.373Z,7.37
2022-10-20T11:29:29.823Z,6.68
2022-10-20T11:32:09.170Z,9.82
2022-10-20T11:34:43.800Z,13.10
2022-10-20T11:37:21.103Z,8.80
2022-10-20T11:40:04.579Z,9.47
2022-10-20T11:43:00.605Z,11.10
2022-10-20T11:45:45.797Z,10.82
2022-10-20T11:48:22.766Z,8.95
2022-10-20T11:51:10.071Z,7.55
2022-10-20T11:54:01.242Z,11.63
2022-10-20T11:56:58.499Z,12.90
2022-10-20T12:00:02.484Z,10.77
2022-10-20T12:02:44.236Z,8.82
2022-10-20T12:05:36.543Z,8.25
2022-10-20T12:08:30.343Z,9.73
2022-10-20T12:11:06.381Z,11.02
2022-10-20T12:13:52.628Z,8.68
2022-10-20T12:16:58.186Z,10.63
2022-10-20T12:19:27.410Z,13.48
2022-10-20T12:21:53.911Z,9.30
2022-10-20T12:24:37.154Z,11.15
2022-10-20T12:27:09.836Z,6.47
2022-10-20T12:29:36.247Z,11.40
2022-10-20T12:32:27.572Z,10.20
2022-10-20T12:35:23.586Z,10.10
2022-10-20T12:37:59.932Z,14.18
2022-10-20T12:40:30.042Z,11.90
2022-10-20T12:42:57.270Z,12.75
2022-10-20T12:45:34.724Z,9.77
2022-10-20T12:48:03.174Z,8.20
2022-10-20T12:50:44.808Z,9.68
2022-10-20T12:53:17.613Z,17.40
2022-10-20T12:55:54.093Z,6.95
2022-10-20T12:58:20.621Z,9.07
2022-10-20T13:00:47.185Z,9.00
2022-10-20T13:03:32.284Z,6.47
2022-10-20T13:05:59.623Z,9.90
2022-10-20T13:08:29.675Z,12.43
2022-10-20T13:10:57.373Z,13.30
2022-10-20T13:13:27.078Z,15.33
2022-10-20T13:15:54.693Z,10.80
2022-10-20T13:18:30.702Z,8.77
2022-10-20T13:21:27.117Z,9.05
2022-10-20T13:23:57.085Z,6.35
2022-10-20T13:26:31.099Z,10.10
2022-10-20T13:29:01.448Z,15.00
2022-10-20T13:31:34.638Z,13.52
2022-10-20T13:34:13.360Z,7.93
2022-10-20T13:37:07.509Z,12.85
2022-10-20T13:40:02.778Z,13.27
2022-10-20T13:42:45.190Z,8.48
2022-10-20T13:45:27.052Z,8.68
2022-10-20T13:48:13.384Z,12.10
2022-10-20T13:50:44.078Z,8.52
2022-10-20T13:53:22.248Z,8.17
2022-10-20T13:56:05.831Z,9.27
2022-10-20T13:58:33.937Z,8.75
2022-10-20T14:01:02.300Z,9.30
2022-10-20T14:03:31.845Z,8.25
2022-10-20T14:05:59.372Z,12.27
2022-10-20T14:08:26.406Z,9.32
2022-10-20T14:11:04.778Z,10.02
2022-10-20T14:13:34.515Z,20.48
2022-10-20T14:16:04.493Z,11.02
2022-10-20T14:18:39.800Z,19.00
2022-10-20T14:21:16.949Z,18.60
2022-10-20T14:23:45.837Z,12.52
2022-10-20T14:26:21.726Z,12.70
2022-10-20T14:28:53.746Z,9.98
2022-10-20T14:31:25.016Z,10.67
2022-10-20T14:33:52.625Z,11.70
2022-10-20T14:36:24.353Z,9.15
2022-10-20T14:38:58.454Z,9.27
2022-10-20T14:41:28.048Z,9.43
2022-10-20T14:44:03.488Z,10.43
2022-10-20T14:46:38.355Z,15.05
2022-10-20T14:49:20.111Z,9.80
2022-10-20T14:51:59.230Z,9.30
2022-10-20T14:54:36.324Z,8.25
2022-10-20T14:57:09.590Z,13.50
2022-10-20T14:59:49.379Z,9.45
2022-10-20T15:02:22.978Z,10.68
2022-10-20T15:04:53.560Z,13.68
2022-10-20T15:07:32.941Z,18.40
2022-10-20T15:10:05.710Z,12.73
2022-10-20T15:12:38.515Z,10.90
2022-10-20T15:15:19.003Z,10.15
2022-10-20T15:17:47.120Z,10.73
2022-10-20T15:20:40.177Z,9.57
2022-10-20T15:23:15.721Z,10.47
2022-10-20T15:25:48.308Z,13.60
2022-10-20T15:28:35.350Z,14.35
2022-10-20T15:31:05.170Z,13.90
2022-10-20T15:33:32.088Z,14.18
2022-10-20T15:36:01.731Z,9.73
2022-10-20T15:38:28.732Z,9.30
2022-10-20T15:40:55.647Z,11.32
2022-10-20T15:43:22.347Z,12.95
2022-10-20T15:45:56.888Z,13.18
2022-10-20T15:48:27.014Z,10.47
2022-10-20T15:50:54.441Z,12.23
2022-10-20T15:53:21.386Z,12.05
2022-10-20T15:55:48.089Z,12.65
2022-10-20T15:58:14.903Z,11.40
2022-10-20T16:00:41.835Z,13.40
2022-10-20T16:03:16.274Z,11.77
2022-10-20T16:05:43.216Z,11.48
2022-10-20T16:08:10.303Z,10.45
2022-10-20T16:10:38.925Z,10.57
2022-10-20T16:13:06.137Z,12.80
2022-10-20T16:15:33.028Z,12.57
2022-10-20T16:17:59.796Z,12.60
2022-10-20T16:20:26.556Z,14.52
2022-10-20T16:22:53.377Z,17.10
2022-10-20T16:25:20.083Z,12.43
2022-10-20T16:27:46.811Z,10.35
2022-10-20T16:30:14.086Z,16.38
2022-10-20T16:32:40.922Z,18.83
2022-10-20T16:35:08.561Z,11.45
2022-10-20T16:37:35.838Z,16.50
2022-10-20T16:40:02.819Z,11.13
2022-10-20T16:42:32.492Z,13.63
2022-10-20T16:44:59.288Z,10.02
2022-10-20T16:47:26.434Z,15.35
2022-10-20T16:49:56.182Z,13.67
2022-10-20T16:52:22.966Z,13.43
2022-10-20T16:54:49.644Z,15.57
2022-10-20T16:57:16.381Z,13.38
2022-10-20T16:59:45.337Z,12.25
2022-10-20T17:02:13.611Z,16.83
2022-10-20T17:04:40.288Z,14.63
2022-10-20T17:07:09.003Z,10.25
2022-10-20T17:09:35.586Z,16.77
2022-10-20T17:12:02.228Z,12.90
2022-10-20T17:14:29.146Z,9.87
2022-10-20T17:16:55.765Z,11.40
2022-10-20T17:19:22.393Z,11.25
2022-10-20T17:21:52.429Z,12.60
2022-10-20T17:24:21.966Z,16.95
2022-10-20T17:26:48.712Z,12.30
2022-10-20T17:29:15.595Z,12.55
2022-10-20T17:31:42.274Z,11.32
2022-10-20T17:34:12.443Z,17.65
2022-10-20T17:36:39.124Z,14.05
2022-10-20T17:39:08.647Z,11.03
2022-10-20T17:41:36.519Z,12.77
2022-10-20T17:44:05.110Z,10.25
2022-10-20T17:46:33.818Z,11.93
2022-10-20T17:49:03.491Z,12.77
2022-10-20T17:51:33.588Z,10.07
2022-10-20T17:54:02.395Z,12.73
2022-10-20T17:56:31.517Z,12.70
2022-10-20T17:59:03.267Z,13.75
2022-10-20T18:01:34.725Z,16.48
2022-10-20T18:04:08.200Z,10.93
2022-10-20T18:06:35.783Z,11.90
2022-10-20T18:09:11.166Z,11.25
2022-10-20T18:11:39.680Z,11.80
2022-10-20T18:14:07.437Z,12.63
2022-10-20T18:16:36.981Z,13.90
2022-10-20T18:19:04.867Z,12.13
2022-10-20T18:21:32.069Z,12.30
2022-10-20T18:24:04.129Z,18.55
2022-10-20T18:26:33.358Z,11.00
2022-10-20T18:29:01.868Z,12.53
2022-10-20T18:31:31.348Z,10.63
2022-10-20T18:34:04.053Z,13.85
2022-10-20T18:36:33.098Z,10.85
2022-10-20T18:39:00.546Z,15.00
2022-10-20T18:41:29.850Z,11.13
2022-10-20T18:43:59.159Z,11.68
2022-10-20T18:46:30.246Z,11.45
2022-10-20T18:48:58.026Z,13.73
2022-10-20T18:51:25.067Z,9.30
2022-10-20T18:53:55.041Z,8.87
2022-10-20T18:56:23.541Z,9.18
2022-10-20T18:58:52.474Z,13.15
2022-10-20T19:01:22.283Z,14.32
2022-10-20T19:03:51.535Z,10.35
2022-10-20T19:06:24.987Z,9.57
2022-10-20T19:08:58.024Z,21.40
2022-10-20T19:11:27.426Z,13.68
2022-10-20T19:13:54.985Z,11.50
2022-10-20T19:16:24.208Z,11.45
2022-10-20T19:18:53.348Z,13.23
2022-10-20T19:23:59.261Z,10.02
2022-10-20T19:26:29.108Z,10.38
2022-10-20T19:29:00.185Z,12.57
2022-10-20T19:31:34.240Z,9.40
2022-10-20T19:34:05.889Z,10.00
2022-10-20T19:36:33.466Z,9.05
2022-10-20T19:39:00.208Z,11.38
2022-10-20T19:41:27.462Z,13.10
2022-10-20T19:43:54.166Z,12.00
2022-10-20T19:46:22.059Z,8.30
2022-10-20T19:48:49.552Z,8.82
2022-10-20T19:51:24.873Z,11.85
2022-10-20T19:53:51.879Z,11.48
2022-10-20T19:56:18.539Z,9.77
2022-10-20T19:58:46.675Z,14.82
2022-10-20T20:01:13.933Z,13.35
2022-10-20T20:03:40.864Z,10.55
2022-10-20T20:06:16.638Z,11.93
2022-10-20T20:08:47.340Z,10.57
2022-10-20T20:11:24.021Z,9.88
2022-10-20T20:13:53.286Z,8.57
2022-10-20T20:16:20.809Z,8.63
2022-10-20T20:18:48.514Z,15.20
2022-10-20T20:21:15.874Z,14.47
2022-10-20T20:23:59.738Z,8.65
2022-10-20T20:26:35.098Z,10.20
2022-10-20T20:29:02.314Z,9.32
2022-10-20T20:31:29.368Z,9.55
2022-10-20T20:33:59.173Z,11.63
2022-10-20T20:36:27.432Z,12.95
2022-10-20T20:38:58.981Z,13.30
2022-10-20T20:41:27.399Z,11.15
2022-10-20T20:43:53.961Z,10.50
2022-10-20T20:46:23.108Z,10.07
2022-10-20T20:48:49.663Z,16.10
2022-10-20T20:51:17.793Z,10.05
2022-10-20T20:53:44.587Z,10.40
2022-10-20T20:56:13.975Z,10.52
2022-10-20T20:58:42.400Z,9.40
2022-10-20T21:01:14.154Z,14.57
2022-10-20T21:03:40.970Z,11.52
2022-10-20T21:06:16.109Z,15.40
2022-10-20T21:08:45.065Z,12.75
2022-10-20T21:11:14.712Z,14.97
2022-10-20T21:13:42.606Z,13.13
2022-10-20T21:16:13.614Z,11.45
2022-10-20T21:18:41.765Z,17.55
2022-10-20T21:21:17.688Z,11.88
2022-10-20T21:23:45.147Z,11.97
2022-10-20T21:26:13.828Z,10.23
2022-10-20T21:28:44.263Z,10.60
2022-10-20T21:31:13.217Z,10.02
2022-10-20T21:33:40.515Z,12.52
2022-10-20T21:36:11.207Z,12.50
2022-10-20T21:38:39.600Z,11.02
2022-10-20T21:41:08.778Z,18.63
2022-10-20T21:43:37.718Z,10.95
2022-10-20T21:46:12.420Z,12.15
2022-10-20T21:48:39.801Z,13.50
2022-10-20T21:51:14.118Z,12.32
2022-10-20T21:53:40.930Z,14.48
2022-10-20T21:56:09.998Z,19.80
2022-10-20T21:58:37.537Z,16.88
2022-10-20T22:01:17.235Z,17.57
2022-10-20T22:03:44.545Z,12.90
2022-10-20T22:06:12.783Z,12.77
2022-10-20T22:08:41.550Z,16.10
2022-10-20T22:11:11.585Z,13.68
2022-10-20T22:13:38.844Z,17.37
2022-10-20T22:16:07.019Z,12.32
2022-10-20T22:18:33.885Z,11.07
2022-10-20T22:21:06.071Z,12.63
2022-10-20T22:23:35.378Z,14.00
2022-10-20T22:26:01.944Z,19.17
2022-10-20T22:28:28.754Z,16.23
2022-10-20T22:30:55.344Z,14.82
2022-10-20T22:33:22.311Z,16.27
2022-10-20T22:35:48.820Z,12.48
2022-10-20T22:38:15.329Z,14.80
2022-10-20T22:40:41.985Z,15.98
2022-10-20T22:43:08.695Z,18.80
2022-10-20T22:45:37.183Z,19.80
2022-10-20T22:48:03.938Z,14.98
2022-10-20T22:50:30.530Z,10.63
2022-10-20T22:52:56.978Z,14.30
2022-10-20T22:55:23.486Z,12.27
2022-10-20T22:57:51.684Z,15.52
2022-10-20T23:00:19.817Z,17.27
2022-10-20T23:02:46.456Z,12.90
2022-10-20T23:05:13.026Z,17.50
2022-10-20T23:07:40.054Z,13.07
2022-10-20T23:10:07.258Z,9.80
2022-10-20T23:12:33.816Z,16.92
2022-10-20T23:15:00.630Z,22.37
2022-10-20T23:17:27.746Z,15.98
2022-10-20T23:19:54.464Z,18.38
2022-10-20T23:22:21.430Z,11.68
2022-10-20T23:24:48.310Z,13.80
2022-10-20T23:27:14.889Z,18.90
2022-10-20T23:29:41.475Z,18.20
2022-10-20T23:32:07.980Z,19.30
2022-10-20T23:37:01.292Z,14.93
2022-10-20T23:39:27.814Z,17.63
2022-10-20T23:41:54.339Z,12.60
2022-10-20T23:44:20.901Z,16.95
2022-10-20T23:46:47.497Z,14.38
2022-10-20T23:49:14.109Z,18.15
2022-10-20T23:51:40.849Z,15.50
2022-10-20T23:54:07.442Z,18.23
2022-10-20T23:56:34.010Z,14.80
2022-10-20T23:59:00.549Z,17.25
